x

Santa Monica Basin - 33nm Wsw Of Santa Monica, Ca (46025) Weather Station

7:20 - Sun 19th Feb 2017 All times are PST. -8 hours from GMT.

  • Wind
    9mph, 11mph gusts
  • Aire Temp 56°f
  • Sea Pressure 1018.5mb
  • Santa Monica Basin - 33nm Wsw Of Santa Monica, Ca
  • Santa Monica Basin - 33nm Wsw Of Santa Monica, Ca

More Historic Weather Station data

Upgrade to MSW Pro to gain access to the past 30 days of data for over 8000 Wavebouys and Weather Stations around the globe.

Join Pro

Comparision Forecast

View Surf forecast
   
dom 02/19 7:20  -   -   -  9 11 mph 1018.5mb - 56f
7:10  -   -   -  9 11 mph 1018mb 59f 56f
7:00  -   -   -  9 11 mph 1017.9mb 59f 57f
6:50 6ft 12s 8s 11 13 mph 1017.9mb 59f 57f
6:40 6ft  -  8s 11 13 mph 1017.9mb 59f 57f
6:30  -   -   -  9 11 mph 1017.6mb 59f 57f
6:20  -   -   -  9 13 mph 1017.4mb 59f 57f
6:10  -   -   -  9 11 mph 1017.1mb 59f 57f
6:00  -   -   -  9 13 mph 1017.1mb 59f 57f
5:50 6ft 13s 8s 11 13 mph 1017.3mb 59f 57f
5:40 6ft  -  8s 11 13 mph 1017.1mb 59f 57f
5:30  -   -   -  11 13 mph 1017mb 59f 57f
5:20  -   -   -  11 13 mph 1016.9mb - 57f
5:10  -   -   -  11 13 mph 1016.8mb 59f 57f
5:00  -   -   -  11 13 mph 1016.8mb 59f 57f
4:50 6.5ft 14s 8s 11 13 mph 1016.5mb 59f 57f
4:40 6.5ft  -  8s 4 9 mph 1016.3mb 59f 57f
4:30  -   -   -  2 4 mph 1016mb 59f 57f
4:20  -   -   -  2 4 mph 1015.9mb 59f 57f
4:10  -   -   -  4 7 mph 1016mb 59f 57f
4:00  -   -   -  4 7 mph 1016mb 59f 57f
3:50 6ft 13s 7s 4 7 mph 1015.8mb 59f 57f
3:40  -   -   -  4 7 mph 1015.5mb 59f 57f
3:30  -   -   -  4 7 mph 1015.6mb 59f 57f
3:20  -   -   -  4 7 mph 1015.5mb 59f 58f
3:10  -   -   -  4 7 mph 1015.9mb 59f 58f
3:00  -   -   -  4 7 mph 1015.6mb 59f 58f
2:50 6.5ft  -  7s 4 7 mph 1015.5mb - 58f
2:40 6.5ft 12s 7s  -  mph - 59f -
2:30  -   -   -  2 4 mph 1015.5mb 59f 58f
2:20  -   -   -  2 4 mph 1015.4mb 59f 58f
2:10  -   -   -  2 4 mph 1015.3mb 59f 58f
2:00  -   -   -  2 7 mph 1015.1mb 59f 57f
1:50 7ft 12s 7s 4 7 mph 1015.3mb 59f 57f
1:40 7ft  -  7s 2 7 mph 1015.1mb 59f 57f
1:30  -   -   -  4 7 mph 1015.1mb 59f 57f
1:20  -   -   -  4 9 mph 1015.1mb 59f 57f
1:10  -   -   -  7 9 mph 1015.3mb 59f 57f
1:00  -   -   -  7 11 mph 1015.1mb 58f 57f
12:50 7ft 13s 7s 7 11 mph 1015.3mb 59f 57f
12:40 7ft  -  7s 7 11 mph 1015.4mb 58f 57f
12:30  -   -   -  7 9 mph 1015.3mb 58f 57f
12:20  -   -   -  7 11 mph 1015.4mb 58f 57f
12:10  -   -   -  7 11 mph 1015.1mb 58f 57f
12:00  -   -   -  9 11 mph 1015.1mb 58f 57f
11:50 9ft 13s 8s 9 11 mph 1015.4mb 58f 57f
11:40 9ft  -  8s 7 9 mph 1015.4mb 58f 57f
11:30  -   -   -  4 9 mph 1015mb - 57f
11:20  -   -   -  4 7 mph 1015mb 58f 57f
11:10  -   -   -  4 9 mph 1014.9mb 58f 57f
11:00  -   -   -  4 9 mph 1014.9mb 58f 57f
10:50 9ft 13s 8s 4 9 mph 1014.9mb 58f 57f
10:40 9ft  -  8s 4 9 mph 1014.8mb 58f 56f
10:30  -   -   -  4 9 mph 1014.5mb 58f 56f
10:20  -   -   -  4 9 mph 1014.5mb 58f 56f
10:10  -   -   -  4 11 mph 1014.4mb 58f 56f
10:00  -   -   -  7 11 mph 1014mb 58f 56f
9:50 9.5ft 13s 8s 9 11 mph 1014mb 58f 56f
9:40 9.5ft  -  8s 9 13 mph 1013.8mb 58f 56f
9:30  -   -   -  11 16 mph 1013.8mb 58f 56f
9:20  -   -   -  11 16 mph 1013.8mb 58f 56f
9:10  -   -   -  11 16 mph 1013.5mb 58f 56f
9:00  -   -   -  13 18 mph 1013.1mb 58f 56f
8:50 9.5ft 12s 8s 13 18 mph 1013mb 58f 56f
8:40 9.5ft  -  8s 11 16 mph 1012.6mb 58f 56f
8:30  -   -   -  11 16 mph 1012.5mb 58f 56f
8:20  -   -   -  11 16 mph 1012.3mb 58f 56f
8:10  -   -   -  11 16 mph 1012.1mb 58f 56f
8:00  -   -   -  13 16 mph 1011.9mb 58f 56f
7:50 9.5ft 13s 8s 13 18 mph 1011.8mb 58f 56f
7:40 9.5ft  -  8s 13 18 mph 1011.5mb 58f 56f
7:30  -   -   -  13 18 mph 1011.5mb 58f 56f
7:20  -   -   -  13 18 mph 1011.4mb 58f 56f
7:10  -   -   -  13 18 mph 1011.4mb 58f 56f
7:00  -   -   -  13 18 mph 1011mb 58f 56f
6:50 9.5ft 14s 8s 11 16 mph 1010.8mb 58f 56f
6:40 9.5ft  -  8s 11 16 mph 1010.5mb 58f 56f
6:30  -   -   -  13 16 mph 1010.4mb 58f 56f
6:20  -   -   -  13 16 mph 1010.3mb 58f 56f
6:10  -   -   -  13 18 mph 1010mb 58f 56f
6:00  -   -   -  16 20 mph 1010mb 58f 55f
5:50 10ft 13s 8s 16 20 mph 1010mb 58f 55f
5:40 10ft  -  8s 16 20 mph 1009.9mb 58f 55f
5:30  -   -   -  16 18 mph 1009.5mb 58f 55f
5:20  -   -   -  16 20 mph 1009.4mb 58f 56f
5:10  -   -   -  16 20 mph 1009.5mb 58f 55f
5:00  -   -   -  18 20 mph 1009.4mb 58f 55f
4:50 10ft 13s 8s 18 22 mph 1009.1mb 58f 55f
4:40  -   -   -  16 20 mph 1009mb 58f 55f
4:30  -   -   -  18 22 mph 1009mb 58f 55f
4:20  -   -   -  18 22 mph 1008.8mb 58f 55f
4:10  -   -   -  18 22 mph 1008.8mb 58f 56f
4:00  -   -   -  18 22 mph 1008.6mb 58f 56f
3:50 10ft 13s 8s 18 25 mph 1008.8mb 58f 56f
3:40 10ft  -  8s 18 22 mph 1008.6mb 58f 56f
3:30  -   -   -  18 22 mph 1008.4mb 58f 56f
3:20  -   -   -  20 25 mph 1008.4mb 58f 56f
3:10  -   -   -  20 27 mph 1008.5mb 58f 56f
3:00  -   -   -  16 20 mph 1008.5mb 58f 56f
2:50 11ft 14s 8s 13 18 mph 1008.5mb 58f 56f
2:40 11ft  -  8s 9 13 mph 1008.5mb 58f 56f
2:30  -   -   -  9 16 mph 1008.3mb 58f 56f
2:20  -   -   -  11 16 mph 1008.3mb 58f 56f
2:10  -   -   -  13 20 mph 1008.5mb 58f 56f
2:00  -   -   -  13 20 mph 1008.3mb 58f 56f
1:50 11ft 13s 8s 11 13 mph 1008.4mb 58f 56f
1:40 11ft  -  8s 13 18 mph 1007.6mb 58f 56f
1:30  -   -   -  16 20 mph 1007.5mb 58f 56f
1:20  -   -   -  16 20 mph 1007.1mb 58f 56f
1:10  -   -   -  18 22 mph 1007.3mb 58f 56f
1:00  -   -   -  18 25 mph 1007.4mb 58f 56f
12:50 11ft 13s 8s 18 25 mph 1007.1mb 58f 56f
12:40 11ft  -  8s 20 25 mph 1007.1mb 58f 56f
12:30  -   -   -  20 27 mph 1007mb 58f 56f
12:20  -   -   -  20 27 mph 1007.1mb 58f 56f
12:10  -   -   -  22 27 mph 1007mb 58f 56f
12:00  -   -   -  20 27 mph 1007mb 58f 56f
sáb 02/18 11:50 11.5ft 13s 8s 22 27 mph 1007.1mb 58f 56f
11:40 11.5ft  -  8s 22 27 mph 1007.3mb 58f 56f
11:30  -   -   -  22 29 mph 1007mb 58f 56f
11:20  -   -   -  25 31 mph 1007.1mb 58f 56f
11:10  -   -   -  25 29 mph 1007mb 58f 56f
11:00  -   -   -  25 31 mph 1006.8mb 58f 56f
10:50 12ft 14s 8s 25 31 mph 1006.9mb 58f 56f
10:40 12ft  -  8s 25 31 mph 1006.9mb - 56f
10:30  -   -   -  25 31 mph 1006.8mb 58f 56f
10:20  -   -   -  25 31 mph 1006.6mb 58f 56f
10:10  -   -   -  22 29 mph 1006.8mb 58f 56f
10:00  -   -   -  25 31 mph 1006.5mb 58f 56f
9:50 12.5ft 14s 8s 25 31 mph 1006.4mb 58f 56f
9:40 12.5ft  -  8s 25 31 mph 1006.1mb 58f 56f
9:30  -   -   -  25 31 mph 1006mb 58f 56f
9:20  -   -   -  22 29 mph 1005.9mb 58f 56f
9:10  -   -   -  22 27 mph 1005.6mb 58f 56f
9:00  -   -   -  20 27 mph 1005.6mb 58f 57f
8:50 12.5ft 14s 9s 22 29 mph 1005.5mb 58f 56f
8:40  -   -   -  25 29 mph 1005.3mb 58f 56f
8:30  -   -   -  22 29 mph 1005mb 58f 56f
8:20  -   -   -  25 29 mph 1005mb 58f 56f
8:10  -   -   -  22 31 mph 1004.8mb 58f 56f
8:00  -   -   -  22 29 mph 1004.5mb 58f 56f
7:50 13ft 14s 9s 22 29 mph 1004.4mb 58f 56f
7:40 13ft  -  9s 25 29 mph 1004.1mb 58f 56f
7:30  -   -   -  25 29 mph 1004.1mb 58f 56f
7:20  -   -   -  25 31 mph 1004.1mb 58f 56f
7:10  -   -   -  22 29 mph 1004mb 58f 56f
7:00  -   -   -  22 29 mph 1004mb 58f 56f
6:50 12ft 15s 8s 22 27 mph 1004mb 58f 56f
6:40  -   -   -  22 29 mph 1003.8mb 58f 56f
6:30  -   -   -  22 29 mph 1003.5mb 58f 56f
6:20  -   -   -  22 29 mph 1003.4mb 58f 56f
6:10  -   -   -  25 29 mph 1003.3mb 58f 56f
6:00  -   -   -  25 29 mph 1003mb 58f 56f
5:50 14ft 14s 8s 25 29 mph 1003mb 58f 56f
5:40 14ft  -  8s 22 29 mph 1003mb 58f 56f
5:30  -   -   -  25 29 mph 1002.6mb 58f 56f
5:20  -   -   -  22 29 mph 1002.5mb 58f 56f
5:10  -   -   -  25 31 mph 1002.5mb 58f 56f
5:00  -   -   -  25 31 mph 1002.5mb 58f 56f
4:50 13.5ft 15s 8s 22 29 mph 1002.3mb 58f 56f
4:40 13.5ft  -  8s 22 29 mph 1002.3mb 58f 56f
4:30  -   -   -  22 31 mph 1002.4mb 58f 56f
4:20  -   -   -  25 31 mph 1002.4mb 58f 57f
4:10  -   -   -  25 31 mph 1002.4mb 58f 56f
4:00  -   -   -  25 34 mph 1002.4mb 58f 57f
3:50 15.5ft 13s 9s 25 31 mph 1002.3mb - 57f
3:40 15.5ft  -  9s 25 34 mph 1002.3mb 58f 56f
3:30  -   -   -  25 29 mph 1002mb 58f 57f
3:20  -   -   -  22 29 mph 1002.1mb 58f 57f
3:10  -   -   -  22 29 mph 1002mb 58f 57f
3:00  -   -   -  22 29 mph 1002mb 58f 57f
2:50 14.5ft 15s 9s 22 29 mph 1002mb 58f 57f
2:40 14.5ft  -  9s 20 27 mph 1001.8mb 58f 57f
2:30  -   -   -  22 29 mph 1001.9mb 58f 57f
2:20  -   -   -  22 29 mph 1001.9mb 58f 57f
2:10  -   -   -  20 29 mph 1001.8mb 59f 57f
2:00  -   -   -  18 27 mph 1001.8mb 59f 56f
1:50 14ft 15s 10s 18 22 mph 1001.6mb 59f 56f
1:40 14ft  -  10s 16 22 mph 1001.6mb 59f 56f
1:30  -   -   -  4 18 mph 1001.6mb 59f 56f
1:20  -   -   -  4 11 mph 1001.5mb 59f 56f
1:10  -   -   -  4 11 mph 1001.5mb 59f 56f
1:00  -   -   -  4 11 mph 1001.5mb 59f 56f
12:50 14.5ft 13s 9s 4 11 mph 1001.5mb 59f 56f
12:40 14.5ft  -  9s 4 11 mph 1001.5mb 58f 56f
12:30  -   -   -  4 11 mph 1001.6mb 58f 56f
12:20  -   -   -  4 9 mph 1001.6mb 58f 56f
12:10  -   -   -  4 9 mph 1001.6mb 58f 56f
12:00  -   -   -  7 11 mph 1001.5mb 58f 56f
11:50 11.5ft 13s 9s 7 13 mph 1001.6mb 58f 56f
11:40 11.5ft  -  9s 9 13 mph 1001.5mb 58f 56f
11:30  -   -   -  9 13 mph 1001.5mb 58f 56f
11:20  -   -   -  9 16 mph 1001.5mb 58f 56f
11:10  -   -   -  9 16 mph 1001.6mb 58f 56f
11:00  -   -   -  9 16 mph 1001.8mb 58f 56f
10:50 10.5ft  -  8s 11 18 mph 1001.8mb - 56f
10:40 10.5ft 11s  -   -  mph - 58f -
10:30  -   -   -  11 18 mph 1001.8mb 58f 56f
10:20  -   -   -  11 16 mph 1001.8mb 58f 56f
10:10  -   -   -  11 18 mph 1001.8mb 58f 56f
10:00  -   -   -  13 18 mph 1001.5mb 58f 56f
9:50 10ft 11s 8s 13 18 mph 1001.5mb 58f 56f
9:40 10ft  -  8s 11 16 mph 1001.5mb 58f 56f
9:30  -   -   -  11 16 mph 1001.5mb 58f 56f
9:20  -   -   -  11 16 mph 1001.4mb 58f 56f
9:10  -   -   -  11 16 mph 1001.1mb 58f 56f
9:00  -   -   -  9 13 mph 1001.1mb 58f 56f
8:50 9.5ft 8s 8s 9 16 mph 1001mb 58f 56f
8:40 9.5ft  -  8s 11 16 mph 1000.9mb 58f 56f
8:30  -   -   -  11 18 mph 1000.5mb 58f 56f
8:20  -   -   -  11 16 mph 1000.1mb 58f 56f
8:10  -   -   -  13 20 mph 1000mb 58f 56f
8:00  -   -   -  7 11 mph 1000.1mb 58f 57f
7:50 9ft 8s 7s 7 11 mph 1000mb 58f 57f
7:40 9ft  -  7s 4 9 mph 1000mb 58f 57f
7:30  -   -   -  4 7 mph 999.8mb 58f 57f
7:20  -   -   -  4 7 mph 999.5mb 58f 57f
7:10  -   -   -  2 4 mph 999.3mb 58f 57f
7:00  -   -   -  2 7 mph 999.1mb 58f 56f
6:50 9.5ft 9s 7s 2 4 mph 999mb 58f 56f
6:40 9.5ft  -  7s 2 4 mph 999mb 58f 56f
6:30  -   -   -   -  4 mph 998.9mb - 56f
6:20  -   -   -   -  4 mph 998.8mb 58f 56f
6:10  -   -   -  2 4 mph 998.8mb 58f 56f
6:00  -   -   -  4 7 mph 998.6mb 58f 56f
5:50 10ft 9s 8s 7 11 mph 998.5mb 58f 56f
5:40 10ft  -  8s 7 11 mph 998.5mb 58f 56f
5:30  -   -   -  2 9 mph 998.5mb 58f 56f
5:20  -   -   -   -  4 mph 998.4mb 58f 56f
5:10  -   -   -  2 4 mph 998.3mb 58f 56f
5:00  -   -   -  2 7 mph 998.1mb 58f 56f
4:50 9.5ft 9s 7s 2 7 mph 998mb 58f 56f
4:40 9.5ft  -  7s 4 7 mph 998mb 58f 56f
4:30  -   -   -  4 7 mph 998mb 58f 56f
4:20  -   -   -  4 7 mph 997.9mb 58f 56f
4:10  -   -   -  4 9 mph 997.9mb 58f 56f
4:00  -   -   -  7 11 mph 997.6mb 58f 56f
3:50 11ft 9s 7s 7 11 mph 997.5mb 58f 56f
3:40 11ft  -  7s 9 16 mph 997.6mb 58f 56f
3:30  -   -   -  13 22 mph 997.8mb 58f 56f
3:20  -   -   -  7 16 mph 997.8mb 58f 56f
3:10  -   -   -  9 16 mph 997.5mb 58f 56f
3:00  -   -   -  7 16 mph 997.5mb 58f 56f
2:50 12ft 9s 7s 7 18 mph 997.8mb 58f 56f
2:40  -   -   -  4 11 mph 997.8mb 58f 56f
2:30  -   -   -  7 13 mph 997.4mb 58f 55f
2:20  -   -   -  4 11 mph 997.6mb 58f 55f
2:10  -   -   -  9 20 mph 997.6mb 58f 55f
2:00  -   -   -  22 38 mph 997.5mb 58f 56f
1:50 12ft 10s 7s 25 34 mph 996.6mb 58f 56f
1:40 12ft  -  7s 25 31 mph 997.1mb 58f 56f
1:30  -   -   -  22 29 mph 997.1mb 58f 56f
1:20  -   -   -  22 29 mph 997mb 58f 56f
1:10  -   -   -  18 27 mph 997mb 58f 56f
1:00  -   -   -  22 31 mph 997.5mb 58f 56f
12:50 12ft 10s 7s 27 34 mph 997.1mb 58f 56f
12:40 12ft  -  7s 22 31 mph 997.1mb 58f 56f
12:30  -   -   -  25 31 mph 996.9mb 58f 56f
12:20  -   -   -  25 29 mph 996.9mb 58f 56f
12:10  -   -   -  22 31 mph 996.9mb 58f 56f
12:00  -   -   -  13 27 mph 997mb 58f 56f
vie 02/17 11:50 12.5ft 9s 7s 18 29 mph 997mb 58f 56f
11:40 12.5ft  -  7s 25 29 mph 996.9mb 58f 56f
11:30  -   -   -  22 31 mph 997mb 58f 56f
11:20  -   -   -  25 31 mph 997mb 58f 56f
11:10  -   -   -  25 31 mph 997mb 58f 56f
11:00  -   -   -  25 31 mph 996.5mb 58f 56f
10:50 11ft 10s 7s 22 31 mph 996.3mb 58f 56f
10:40  -   -   -  11 20 mph 996.8mb 58f 55f
10:30  -   -   -  18 22 mph 996.8mb 58f 55f
10:20  -   -   -  20 27 mph 996.9mb 58f 55f
10:10  -   -   -  22 29 mph 996.8mb 58f 56f
10:00  -   -   -  25 31 mph 997mb 58f 56f
9:50 11.5ft 9s 7s 25 29 mph 996.6mb 58f 56f
9:40 11.5ft  -  7s 16 34 mph 996.5mb 58f 56f
9:30  -   -   -  11 20 mph 997mb 58f 56f
9:20  -   -   -  18 25 mph 996.9mb 58f 56f
9:10  -   -   -  20 25 mph 996.8mb 58f 56f
9:00  -   -   -  20 27 mph 996.6mb 58f 56f
8:50 11.5ft 8s 7s 22 27 mph 996.5mb 58f 56f
8:40 11.5ft  -  7s 22 29 mph 996.5mb 58f 56f
8:30  -   -   -  20 27 mph 996.5mb 58f 56f
8:20  -   -   -  20 27 mph 996.4mb 58f 56f
8:10  -   -   -  18 22 mph 996.4mb 58f 56f
8:00  -   -   -  20 29 mph 996.1mb 58f 56f
7:50 11.5ft 9s 7s 22 27 mph 995.8mb 58f 56f
7:40 11.5ft  -  7s 22 29 mph 996mb 58f 56f
7:30  -   -   -  20 29 mph 996mb 58f 56f
7:20  -   -   -  22 29 mph 995.6mb 58f 57f
7:10  -   -   -  25 29 mph 995.5mb 58f 57f
7:00  -   -   -  25 31 mph 995.5mb 58f 56f
6:50 11ft 8s 7s 22 31 mph 995.5mb 58f 56f
6:40 11ft  -  7s 22 29 mph 995.5mb 58f 57f
6:30  -   -   -  20 29 mph 995.1mb 58f 57f
6:20  -   -   -  20 27 mph 995.5mb 58f 57f
6:10  -   -   -  22 27 mph 995.1mb 58f 57f
6:00  -   -   -  22 29 mph 995.1mb 58f 57f
5:50 11.5ft 8s 7s 20 27 mph 995mb 58f 57f
5:40  -   -   -  20 25 mph 995.3mb 58f 57f
5:30 11.5ft  -  7s 18 25 mph 995.3mb - 57f
5:20  -   -   -  20 27 mph 995.4mb - 57f
5:10  -   -   -  22 27 mph 995.3mb 58f 57f
5:00  -   -   -  22 29 mph 995.5mb 58f 57f
4:50 11ft 8s 7s 22 29 mph 995.6mb 58f 57f
4:40  -   -   -  20 27 mph 995mb 58f 57f
4:30  -   -   -  22 27 mph 995.6mb 58f 57f
4:20  -   -   -  20 27 mph 995.1mb 58f 58f
4:10  -   -   -  18 25 mph 995.5mb 58f 57f
4:00  -   -   -  16 22 mph 995.8mb 58f 57f
3:50 11.5ft 8s 7s 18 22 mph 995.8mb 58f 57f
3:40 11.5ft  -  7s 22 31 mph 996mb 58f 57f
3:30  -   -   -  27 34 mph 995.9mb 58f 57f
3:20  -   -   -  25 34 mph 995.8mb 58f 59f
3:10  -   -   -  25 34 mph 995.5mb 58f 58f
3:00  -   -   -  29 47 mph 996mb 58f 58f
2:50 11ft 7s 6s 31 38 mph 996.5mb 58f 58f
2:40 11ft  -  6s 27 38 mph 996mb 58f 58f
2:30  -   -   -  29 43 mph 996.3mb 58f 58f
2:20  -   -   -  31 40 mph 996.4mb 58f 58f
2:10  -   -   -  31 40 mph 996.5mb 58f 58f
2:00  -   -   -  31 40 mph 996.5mb 58f 58f
1:50 10.5ft 7s 6s 31 43 mph 996.6mb 58f 58f
1:40 10.5ft  -  6s 34 40 mph 996.9mb 58f 58f
1:30  -   -   -  29 40 mph 997.4mb 58f 58f
1:20  -   -   -  31 40 mph 997.6mb 58f 58f
1:10  -   -   -  29 38 mph 998mb 58f 58f
1:00  -   -   -  31 40 mph 998.5mb 58f 58f
12:50 10ft 7s 6s 34 43 mph 998.6mb 58f 58f
12:40 10ft  -  6s 34 43 mph 998.8mb 58f 58f
12:30  -   -   -  31 40 mph 999mb 58f 58f
12:20  -   -   -  29 38 mph 999.6mb 58f 58f
12:10  -   -   -  31 40 mph 999.8mb 58f 58f
12:00  -   -   -  34 43 mph 1000mb 58f 58f
11:50 10ft 6s 6s 34 40 mph 1000mb 58f 58f
11:40 10ft  -  6s 34 43 mph 1000.1mb 58f 58f
11:30  -   -   -  34 45 mph 1000.5mb 58f 58f
11:20  -   -   -  34 40 mph 1000.5mb 58f 58f
11:10  -   -   -  34 43 mph 1000.5mb 58f 58f
11:00  -   -   -  34 45 mph 1000.6mb 58f 58f
10:50 9ft 6s 6s 34 47 mph 1001mb 58f 58f
10:40  -   -   -  34 43 mph 1001.5mb 58f 58f
10:30  -   -   -  34 43 mph 1001.5mb - 58f
10:20  -   -   -  31 40 mph 1001.9mb 58f 58f
10:10  -   -   -  29 38 mph 1002.4mb 58f 58f
10:00  -   -   -  34 40 mph 1002.5mb 58f 58f
9:50 8ft 6s 6s 31 45 mph 1003mb 58f 58f
9:40 8ft  -  6s 34 43 mph 1003.1mb 58f 58f
9:30  -   -   -  31 43 mph 1003.1mb 58f 58f
9:20  -   -   -  31 38 mph 1003.1mb 58f 58f
9:10  -   -   -  31 43 mph 1003.4mb 58f 58f
9:00  -   -   -  29 36 mph 1003.5mb 58f 58f
8:50 7ft 16s 6s 29 38 mph 1003.8mb 58f 58f
8:40 7ft  -  6s 29 38 mph 1004.1mb 58f 58f
8:30  -   -   -  29 36 mph 1004.4mb 58f 58f
8:20  -   -   -  29 36 mph 1005mb 58f 58f
8:10  -   -   -  29 36 mph 1005.1mb 58f 58f
8:00  -   -   -  27 34 mph 1005.1mb 58f 58f
7:50 7ft 16s 6s 27 34 mph 1005.5mb 58f 58f
7:40  -   -   -  25 34 mph 1006mb 58f 58f
7:30  -   -   -  25 34 mph 1006mb 58f 57f
7:20  -   -   -  27 34 mph 1005mb 58f 58f
7:10  -   -   -  22 31 mph 1005.5mb 58f 58f
7:00  -   -   -  22 31 mph 1006.5mb 58f 58f
6:50 6ft 16s 6s 22 29 mph 1006.6mb 58f 58f
6:40 6ft  -  6s 22 29 mph 1006.5mb 58f 59f
6:30  -   -   -  22 27 mph 1006.4mb 58f 59f
6:20  -   -   -  22 29 mph 1006.6mb 58f 59f
6:10  -   -   -  22 27 mph 1006.5mb 58f 59f
6:00  -   -   -  20 27 mph 1006.9mb 58f 59f
5:50 6ft 11s 7s 18 25 mph 1007.3mb 58f 59f
5:40 6ft  -  7s 20 27 mph 1007.4mb - 59f
5:30  -   -   -  18 22 mph 1007mb 58f 59f
5:20  -   -   -  18 25 mph 1007.6mb 58f 58f
5:10  -   -   -  16 22 mph 1007.8mb 58f 58f
5:00  -   -   -  16 18 mph 1007.9mb 58f 58f
4:50 6ft 15s 7s 18 22 mph 1008.1mb - 59f
4:40  -   -   -  18 22 mph 1007.9mb 58f 59f
4:30  -   -   -  18 22 mph 1007.9mb 58f 58f
4:20  -   -   -  16 20 mph 1008.5mb 59f 58f
4:10  -   -   -  16 20 mph 1008mb 59f 58f
4:00  -   -   -  16 20 mph 1007.4mb 59f 58f
3:50 6ft 16s 7s 16 18 mph 1008.4mb 59f 58f
3:40 6ft  -  7s 16 20 mph 1008.5mb 59f 59f
3:30  -   -   -  16 20 mph 1008.6mb 59f 59f
3:20  -   -   -  16 20 mph 1009.1mb 59f 59f
3:10  -   -   -  16 18 mph 1009.3mb 59f 59f
3:00  -   -   -  16 20 mph 1009mb 59f 58f
2:50 6.5ft 13s 9s 16 22 mph 1008.1mb 59f 59f
2:40  -   -   -  18 20 mph 1008.4mb 59f 58f
2:30  -   -   -  16 20 mph 1008.3mb 59f 58f
2:20  -   -   -  13 18 mph 1009mb 59f 58f
2:10  -   -   -  13 18 mph 1009.3mb 59f 58f
2:00  -   -   -  16 22 mph 1009.1mb 59f 58f
1:50 5.5ft 11s 9s 16 22 mph 1009mb 59f 58f
1:40 5.5ft  -  9s 13 16 mph 1009.6mb 59f 58f
1:30  -   -   -  13 16 mph 1009.9mb 59f 58f
1:20  -   -   -  13 16 mph 1009.9mb 59f 58f
1:10  -   -   -  13 18 mph 1009.8mb 59f 58f
1:00  -   -   -  13 16 mph 1010.1mb 59f 58f
12:50 5.5ft 12s 9s 13 16 mph 1010mb 59f 58f
12:40 5.5ft  -  9s 11 16 mph 1009.6mb 59f 58f
12:30  -   -   -  13 18 mph 1009.6mb - 58f
12:20  -   -   -  11 13 mph 1010mb 59f 58f
12:10  -   -   -  9 13 mph 1010.1mb 59f 58f
12:00  -   -   -  7 11 mph 1010.6mb 59f 58f
jue 02/16 11:50 5ft 14s 8s 9 11 mph 1010.8mb 59f 58f
11:40 5ft  -  8s 7 9 mph 1010.8mb 59f 58f
11:30  -   -   -  4 7 mph 1011.5mb 59f 58f
11:20  -   -   -  4 7 mph 1011.8mb 59f 58f
11:10  -   -   -  2 4 mph 1011.9mb 59f 58f
11:00  -   -   -  2 4 mph 1011.9mb 59f 58f
10:50 5ft 17s 8s  -  2 mph 1012mb 59f 58f
10:40 5ft  -  8s  -  2 mph 1012mb 59f 58f
10:30  -   -   -  2 4 mph 1011.6mb 59f 58f
10:20  -   -   -   -  2 mph 1012mb 59f 58f
10:10  -   -   -   -  2 mph 1012.1mb 59f 58f
10:00  -   -   -  2 4 mph 1012mb 59f 58f
9:50 4.5ft 13s 8s 2 4 mph 1012.4mb 59f 58f
9:40 4.5ft  -  8s 2 4 mph 1012.6mb 59f 58f
9:30  -   -   -  4 7 mph 1012.8mb 59f 58f
9:20  -   -   -  7
mph
1012.6mb 59f 58f
9:10  -   -   -  7 9 mph 1012.6mb 59f 58f
9:00  -   -   -  7
mph
1012.6mb 59f 58f
8:50 5ft 14s 8s 9 11 mph 1012.4mb 59f 58f
8:40 5ft  -  8s 9 11 mph 1012.5mb 59f 58f
8:30  -   -   -  9 11 mph 1013.1mb 59f 58f
8:20  -   -   -  9 11 mph 1013.3mb 59f 58f
8:10  -   -   -  9 11 mph 1013mb 59f 58f
8:00  -   -   -  9 13 mph 1012.8mb 59f 58f
7:50 5ft 14s 8s 11 13 mph 1012.9mb 59f 58f
7:40 5ft  -  8s 13 18 mph 1013mb 59f 58f
7:30  -   -   -  16 18 mph 1013.5mb 59f 58f
7:20  -   -   -  16 18 mph 1013.5mb 59f 59f
7:10  -   -   -  13 18 mph 1013.5mb 59f 59f
7:00  -   -   -  13 18 mph 1013.3mb 59f 59f
6:50 4.5ft 13s 8s 13 18 mph 1013.3mb 59f 59f
6:40 4.5ft  -  8s 13 18 mph 1013.5mb 59f 59f
6:30  -   -   -  11 13 mph 1013.5mb 59f 59f
6:20  -   -   -  11 13 mph 1013mb 59f 59f
6:10  -   -   -  11 13 mph 1013mb 59f 59f
6:00  -   -   -  9 13 mph 1013.5mb 59f 59f
5:50 4ft 13s 8s 7 9 mph 1013.1mb 59f 58f
5:40 4ft  -  8s 4 7 mph 1013mb 59f 58f
5:30  -   -   -  4 7 mph 1013mb 59f 58f
5:20  -   -   -  7
mph
1013.3mb 59f 58f
5:10  -   -   -  7 9 mph 1013.9mb 59f 58f
5:00  -   -   -  7 9 mph 1013.1mb - 58f
4:50 4ft 13s 9s 4 7 mph 1013.6mb 59f 58f
4:40 4ft  -  9s 7 9 mph 1013.4mb 59f 58f
4:30  -   -   -  7 9 mph 1013.5mb 59f 58f
4:20  -   -   -  9 11 mph 1014mb 59f 58f
4:10  -   -   -  11 13 mph 1014.1mb 59f 58f
4:00  -   -   -  11 13 mph 1014.3mb 59f 58f
3:50 3.5ft 14s 8s 11 13 mph 1014.1mb 59f 58f
3:40 3.5ft  -  8s 11 13 mph 1014.1mb 59f 59f
3:30  -   -   -  13 16 mph 1014.1mb 59f 59f
3:20  -   -   -  11 16 mph 1014.5mb 59f 58f
3:10  -   -   -  11 16 mph 1014.5mb 59f 58f
3:00  -   -   -  11 16 mph 1014.1mb 59f 58f
2:50 3.5ft 17s 8s 11 13 mph 1014mb 59f 58f
2:40 3.5ft  -  8s 9 11 mph 1013.9mb 59f 58f
2:30  -   -   -  9 11 mph 1013.8mb 59f 58f
2:20  -   -   -  9 11 mph 1014.3mb 59f 58f
2:10  -   -   -  7 9 mph 1014.4mb 59f 58f
2:00  -   -   -  9 11 mph 1014.5mb 59f 58f
1:50 3.5ft 13s 7s 9 11 mph 1014.9mb 59f 58f
1:40  -   -   -  7
mph
1014.9mb 59f 58f
1:30  -   -   -  4 7 mph 1014.5mb 59f 58f
1:20  -   -   -  4 7 mph 1015.4mb 59f 58f
1:10  -   -   -  2 4 mph 1015.6mb 59f 58f
1:00  -   -   -  4 7 mph 1015.9mb 59f 58f
12:50 3.5ft 13s 7s 7 9 mph 1016.1mb 59f 57f
12:40  -   -   -  9 11 mph 1016.4mb 59f 57f
12:30  -   -   -  11 16 mph 1016.4mb 59f 57f
12:20  -   -   -  13 16 mph 1016.5mb 59f 57f
12:10  -   -   -  11 16 mph 1016.5mb 59f 57f
12:00  -   -   -  11 13 mph 1016.5mb 59f 57f
11:50 3.5ft 13s 7s 9 11 mph 1016.5mb 59f 57f
11:40 3.5ft  -  7s 7 9 mph 1016.8mb 59f 57f
11:30  -   -   -  7 9 mph 1017mb 59f 57f
11:20  -   -   -  9 11 mph 1017mb 59f 57f
11:10  -   -   -  9 11 mph 1017.1mb 59f 57f
11:00  -   -   -  11 13 mph 1017.4mb 59f 57f
10:50 2.5ft 13s 6s 9 11 mph 1017.4mb 59f 57f
10:40 2.5ft  -  6s 11 13 mph 1017.5mb 59f 57f
10:30  -   -   -  13 16 mph 1017.5mb 59f 57f
10:20  -   -   -  11 16 mph 1017.8mb 59f 57f
10:10  -   -   -  9 13 mph 1017.3mb 59f 57f
10:00  -   -   -  11 16 mph 1017.3mb 59f 57f
9:50 2.5ft 14s 6s 13 18 mph 1017.5mb 59f 56f
9:40 2.5ft  -  6s 13 16 mph 1017.5mb 59f 56f
9:30  -   -   -  11 13 mph 1017.3mb 59f 57f
9:20  -   -   -  11 13 mph 1017mb 59f 57f
9:10  -   -   -  9 11 mph 1017.3mb 59f 57f
9:00  -   -   -  7 9 mph 1017.3mb 59f 56f
8:50 3ft 13s 7s 7 9 mph 1017mb 58f 56f
8:40 3ft 13s  -   -  mph - - -
8:30  -   -   -  7 9 mph 1016.8mb 58f 56f
8:20  -   -   -  4 7 mph 1016.5mb 58f 56f
8:10  -   -   -  7 9 mph 1016.5mb 58f 56f
8:00  -   -   -  7 9 mph 1016.6mb 58f 56f
7:50 3ft 14s 7s 4 9 mph 1016.5mb 58f 56f
7:40 3ft  -  7s 4 7 mph 1016.3mb 58f 56f
7:30  -   -   -  7 9 mph 1016.5mb 58f 56f
7:20  -   -   -  9 11 mph 1016.8mb 58f 56f
7:10  -   -   -  9 11 mph 1016.8mb 58f 55f
7:00  -   -   -  9 11 mph 1016.8mb 58f 55f
6:50 2.5ft 14s 6s 11 13 mph 1016.8mb 58f 55f
6:40 2.5ft  -  6s 11 13 mph 1016.8mb 58f 55f
6:30  -   -   -  11 16 mph 1016.6mb 58f 55f
6:20  -   -   -  11 13 mph 1016.5mb 58f 54f
6:10  -   -   -  9 13 mph 1016.5mb 58f 54f
6:00  -   -   -  11 13 mph 1016.5mb 58f 54f
5:50 2.5ft 19s 7s 11 13 mph 1016.6mb 58f 54f
5:40 2.5ft  -  7s 9 13 mph 1016.5mb 58f 54f
5:30  -   -   -  9 11 mph 1016.4mb 58f 54f
5:20  -   -   -  11 13 mph 1016.4mb 58f 54f
5:10  -   -   -  9 11 mph 1016.4mb 58f 54f
5:00  -   -   -  9 11 mph 1016.3mb 58f 54f
4:50 2.5ft 14s 8s 9 13 mph 1016.3mb 58f 54f
4:40  -   -   -  9 11 mph 1016.3mb 58f 54f
4:30  -   -   -  9 13 mph 1016.1mb 58f 54f
4:20  -   -   -  9 11 mph 1016mb 58f 54f
4:10  -   -   -  9 13 mph 1016.1mb 58f 54f